Impacts METAR Board
IDs:

KMCO - Orlando Intl, FL, US

Updated at: 2300 UTC 19 Jan 2019
Potential Impact None Slight Moderate High
Time 19/11Z 19/12Z 19/13Z 19/14Z 19/15Z 19/16Z 19/17Z 19/18Z 19/19Z 19/20Z 19/21Z 19/22Z 19/23Z
Temp51 50 53 61 67 71 74 78 79 79 77 77 72
Dewpt49 48 51 56 58 58 58 56 54 53 52 54 54
Altim30.06 30.06 30.07 30.07 30.08 30.07 30.04 30.00 29.96 29.94 29.92 29.91 29.90
VIS10 10 7 10 10 10 10 10 10 10 10 10 10
CIG300 -- -- 250 250 250 250 250 250 -- 250 250 220
CoverOVCSCTSCTBKNBKNBKNBKNBKNBKNSCTBKNBKNBKN
FltCatVFRVFRVFRVFRVFRVFRVFRVFRVFRVFRVFRVFRVFR
WX--------------------------
WDir00170180190190180180180180180170
WSpd0 0 5 7 8 11 12 14 14 15 9 6
WGst-- -- -- -- -- -- -- -- 22 -- 19 -- --
Raw hourly METARs
KMCO 191053Z 00000KT 10SM OVC300 11/09 A3006 RMK AO2 SLP179 T01060094
KMCO 191153Z 00000KT 10SM SCT250 10/09 A3006 RMK AO2 SLP180 T01000089 10139 20100 55005
KMCO 191253Z COR 7SM SCT250 12/11 A3007 RMK AO2 SLP180 T01170106
KMCO 191353Z 17005KT 10SM BKN250 16/13 A3007 RMK AO2 SLP181 T01610133
KMCO 191453Z 18007KT 10SM BKN250 19/14 A3008 RMK AO2 SLP186 T01940144 53007
KMCO 191553Z 19008KT 10SM BKN250 22/14 A3007 RMK AO2 SLP180 T02170144
KMCO 191653Z 19011KT 10SM BKN250 23/14 A3004 RMK AO2 SLP172 T02330144
KMCO 191753Z 18012KT 10SM FEW040 BKN250 26/13 A3000 RMK AO2 SLP155 T02560133 10256 20100 58030
KMCO 191853Z 18014G22KT 10SM BKN250 26/12 A2996 RMK AO2 SLP142 T02610122
KMCO 191953Z 18014KT 10SM FEW060 SCT250 26/12 A2994 RMK AO2 SLP136 T02610117
KMCO 192053Z 18015G19KT 10SM FEW060 FEW080 BKN250 25/11 A2992 RMK AO2 SLP131 T02500111 56024
KMCO 192153Z 18009KT 10SM FEW050 FEW070 SCT080 BKN250 BKN300 25/12 A2991 RMK AO2 SLP127 T02500122
KMCO 192253Z 17006KT 10SM FEW065 SCT150 BKN220 22/12 A2990 RMK AO2 SLP124 T02220122



Page loaded:  23:30 UTC  |   03:30 PM Pacific  |   04:30 PM Mountain  |   05:30 PM Central  |   06:30 PM Eastern

 

ADVISORIES

FORECASTS

FORECASTS

OBSERVATIONS

USER TOOLS

ABOUT US